Time;durP1;ratioP1;P1;durP2;ratioP2;P2;SDS_P1;SDS_P2;PMS_P1;PMS_P2;Temp;Humidity;BMP_temperature;BMP_pressure;BME280_temperature;BME280_humidity;BME280_pressure;Samples;Min_cycle;Max_cycle;Signal;HPM_P1;HPM_P2
2023/04/18 00:02:16;;;;;;;;;62.75;47.50;;;;;10.25;100.00;101846.09;4974830;28;46095;-79
2023/04/18 00:04:49;;;;;;;;;69.75;53.75;;;;;10.17;100.00;101846.16;4975933;28;45520;-78
2023/04/18 00:07:15;;;;;;;;;71.25;54.50;;;;;10.11;100.00;101842.25;4975145;28;46315;-79
2023/04/18 00:09:41;;;;;;;;;66.50;51.25;;;;;10.07;100.00;101836.28;4973336;28;45483;-78
2023/04/18 00:12:07;;;;;;;;;70.75;53.75;;;;;10.04;100.00;101839.38;4956420;28;45571;-79
2023/04/18 00:14:34;;;;;;;;;70.00;54.25;;;;;9.98;100.00;101828.25;4988202;28;45868;-78
2023/04/18 00:17:01;;;;;;;;;73.25;53.25;;;;;9.98;100.00;101842.78;4973669;28;45479;-78
2023/04/18 00:19:26;;;;;;;;;66.50;50.75;;;;;9.92;100.00;101831.72;4976506;28;45297;-78
2023/04/18 00:21:52;;;;;;;;;73.50;56.50;;;;;9.78;100.00;101808.66;4978713;28;45153;-78
2023/04/18 00:24:18;;;;;;;;;71.75;56.25;;;;;9.90;100.00;101834.63;4978530;28;45516;-77
2023/04/18 00:26:43;;;;;;;;;72.25;54.50;;;;;9.86;100.00;101849.72;4978958;28;45787;-77
2023/04/18 00:29:09;;;;;;;;;77.25;56.50;;;;;9.86;100.00;101838.75;4983007;28;45653;-78
2023/04/18 00:31:34;;;;;;;;;69.75;57.00;;;;;9.80;100.00;101833.97;4983614;28;45886;-77
2023/04/18 00:34:00;;;;;;;;;78.25;60.00;;;;;9.80;100.00;101821.13;4963666;28;46192;-80
2023/04/18 00:36:26;;;;;;;;;74.75;59.25;;;;;9.81;100.00;101831.06;4984401;28;46472;-79
2023/04/18 00:38:52;;;;;;;;;63.25;48.25;;;;;9.90;100.00;101818.19;4991621;28;45977;-78
2023/04/18 00:41:19;;;;;;;;;61.00;51.00;;;;;9.91;100.00;101825.38;4993336;28;45452;-78
2023/04/18 00:43:44;;;;;;;;;63.25;49.25;;;;;9.80;100.00;101809.31;4993966;28;45553;-77
2023/04/18 00:46:10;;;;;;;;;76.00;57.75;;;;;9.94;100.00;101832.38;4986970;28;46121;-78
2023/04/18 00:48:37;;;;;;;;;70.50;55.25;;;;;9.98;100.00;101814.56;4989330;28;45460;-79
2023/04/18 00:51:04;;;;;;;;;70.75;53.75;;;;;9.97;100.00;101823.78;4998600;28;45470;-77
2023/04/18 00:53:30;;;;;;;;;70.25;53.75;;;;;9.94;100.00;101825.03;4989437;28;45228;-77
2023/04/18 00:55:56;;;;;;;;;75.75;56.50;;;;;9.98;100.00;101820.88;4987108;28;46031;-78
2023/04/18 00:58:22;;;;;;;;;65.75;52.25;;;;;10.01;100.00;101814.19;4974176;28;45504;-78
2023/04/18 01:00:48;;;;;;;;;71.25;53.00;;;;;10.02;100.00;101810.44;4991591;28;45433;-78
2023/04/18 01:03:16;;;;;;;;;72.75;54.00;;;;;10.05;100.00;101816.38;4985006;28;45461;-78
2023/04/18 01:05:43;;;;;;;;;69.25;53.00;;;;;10.11;100.00;101813.97;4990514;28;46227;-78
2023/04/18 01:08:09;;;;;;;;;76.75;57.00;;;;;10.10;100.00;101809.53;4993993;28;45493;-78
2023/04/18 01:10:35;;;;;;;;;71.25;55.75;;;;;10.20;100.00;101805.53;4986750;28;45393;-78
2023/04/18 01:13:15;;;;;;;;;73.25;55.75;;;;;10.16;100.00;101812.38;4966764;28;46919;-78
2023/04/18 01:15:42;;;;;;;;;69.50;53.75;;;;;10.18;100.00;101809.47;4986900;28;45640;-77
2023/04/18 01:18:08;;;;;;;;;73.50;56.25;;;;;10.18;100.00;101809.47;4987028;28;45391;-80
2023/04/18 01:20:42;;;;;;;;;69.75;50.00;;;;;10.17;100.00;101810.53;4998034;28;45334;-80
2023/04/18 01:23:09;;;;;;;;;72.00;54.50;;;;;10.19;100.00;101808.44;4957126;28;45444;-79
2023/04/18 01:25:34;;;;;;;;;75.25;55.00;;;;;10.16;100.00;101795.94;5000015;28;45587;-80
2023/04/18 01:28:01;;;;;;;;;72.25;53.50;;;;;10.16;100.00;101801.41;5003655;28;45416;-79
2023/04/18 01:30:27;;;;;;;;;66.00;49.00;;;;;10.04;100.00;101787.31;4993224;28;45416;-79
2023/04/18 01:32:52;;;;;;;;;67.50;52.25;;;;;10.11;100.00;101790.16;4987080;28;45900;-80
2023/04/18 01:35:18;;;;;;;;;70.75;55.25;;;;;10.05;100.00;101788.13;4984757;28;45560;-78
2023/04/18 01:37:43;;;;;;;;;70.25;53.25;;;;;10.03;100.00;101791.06;4987200;28;45479;-79
2023/04/18 01:40:10;;;;;;;;;71.50;53.00;;;;;10.00;100.00;101790.53;4994839;28;45850;-81
2023/04/18 01:42:35;;;;;;;;;72.00;54.75;;;;;9.95;100.00;101796.56;4997201;28;45812;-78
2023/04/18 01:45:01;;;;;;;;;67.25;54.25;;;;;9.91;100.00;101792.50;4983380;28;45386;-78
2023/04/18 01:47:26;;;;;;;;;67.25;52.25;;;;;9.86;100.00;101787.53;4983146;28;45454;-80
2023/04/18 01:49:52;;;;;;;;;72.00;55.00;;;;;9.87;100.00;101788.41;4997915;28;45593;-79
2023/04/18 01:52:17;;;;;;;;;72.50;54.00;;;;;9.79;100.00;101782.94;4996320;28;44813;-79
2023/04/18 01:54:42;;;;;;;;;75.75;56.50;;;;;9.73;100.00;101781.81;4988300;28;45678;-81
2023/04/18 01:57:08;;;;;;;;;69.00;53.00;;;;;9.70;100.00;101779.38;4992137;28;45675;-80
2023/04/18 01:59:34;;;;;;;;;69.25;53.25;;;;;9.76;100.00;101783.31;4985124;28;45389;-79
2023/04/18 02:01:59;;;;;;;;;75.50;56.25;;;;;9.70;100.00;101791.22;4985695;28;45373;-80
2023/04/18 02:04:25;;;;;;;;;70.75;54.50;;;;;9.70;100.00;101780.25;4965376;28;46640;-79
2023/04/18 02:06:51;;;;;;;;;74.75;56.00;;;;;9.68;100.00;101793.25;4988029;28;45963;-79
2023/04/18 02:09:16;;;;;;;;;66.75;50.25;;;;;9.64;100.00;101772.75;4996508;28;45286;-80
2023/04/18 02:11:42;;;;;;;;;73.50;57.75;;;;;9.65;100.00;101779.91;4968422;28;46434;-80
2023/04/18 02:14:07;;;;;;;;;69.00;53.00;;;;;9.63;100.00;101776.53;4978211;28;47162;-79
2023/04/18 02:16:34;;;;;;;;;72.00;53.75;;;;;9.56;100.00;101767.28;4984707;28;45365;-78
2023/04/18 02:19:00;;;;;;;;;73.25;56.25;;;;;9.62;100.00;101782.19;4984816;28;45480;-79
2023/04/18 02:21:25;;;;;;;;;70.25;55.00;;;;;9.62;100.00;101766.59;4981072;28;45358;-80
2023/04/18 02:23:51;;;;;;;;;69.00;51.75;;;;;9.64;100.00;101770.03;4991805;28;45403;-78
2023/04/18 02:26:16;;;;;;;;;71.25;54.00;;;;;9.44;100.00;101736.69;4985813;28;45345;-80
2023/04/18 02:28:42;;;;;;;;;69.25;50.00;;;;;9.64;100.00;101770.03;4987645;28;45686;-79
2023/04/18 02:31:13;;;;;;;;;74.00;51.75;;;;;9.62;100.00;101761.09;4988796;28;45353;-81
2023/04/18 02:33:42;;;;;;;;;68.50;53.25;;;;;9.60;100.00;101765.06;4967235;28;47403;-81
2023/04/18 02:36:08;;;;;;;;;71.75;54.25;;;;;9.55;100.00;101768.34;4983430;28;45754;-78
2023/04/18 02:38:33;;;;;;;;;70.50;57.25;;;;;9.58;100.00;101772.59;5001947;28;45648;-79
2023/04/18 02:40:59;;;;;;;;;68.00;52.75;;;;;9.58;100.00;101759.78;4975964;28;45399;-79
2023/04/18 02:43:24;;;;;;;;;72.00;53.25;;;;;9.55;100.00;101751.91;4984170;28;46272;-79
2023/04/18 02:45:50;;;;;;;;;59.00;49.00;;;;;9.62;100.00;101769.31;4984258;28;45366;-81
2023/04/18 02:48:15;;;;;;;;;62.75;48.75;;;;;9.62;100.00;101769.31;4997526;28;45465;-80
2023/04/18 02:50:41;;;;;;;;;70.75;51.50;;;;;9.61;100.00;101758.53;4995223;28;45327;-79
2023/04/18 02:53:07;;;;;;;;;71.00;50.50;;;;;9.60;100.00;101754.97;4986250;28;45436;-79
2023/04/18 02:55:32;;;;;;;;;74.25;54.25;;;;;9.56;100.00;101771.94;4972628;28;45405;-79
2023/04/18 02:57:57;;;;;;;;;73.25;57.75;;;;;9.41;100.00;101728.84;4972545;28;45774;-77
2023/04/18 03:00:23;;;;;;;;;67.75;52.25;;;;;9.51;100.00;101764.25;4990898;28;47513;-79
2023/04/18 03:02:49;;;;;;;;;72.25;55.00;;;;;9.51;100.00;101764.25;4988529;28;45306;-79
2023/04/18 03:05:15;;;;;;;;;68.25;51.75;;;;;9.45;100.00;101759.47;4969438;28;45149;-78
2023/04/18 03:07:41;;;;;;;;;69.75;52.50;;;;;9.38;100.00;101759.31;4974647;28;45257;-79
2023/04/18 03:10:06;;;;;;;;;65.50;49.50;;;;;9.34;100.00;101767.03;4983916;28;45635;-79
2023/04/18 03:12:32;;;;;;;;;72.25;54.25;;;;;9.32;100.00;101771.81;4999282;28;45563;-78
2023/04/18 03:14:57;;;;;;;;;74.50;53.00;;;;;9.31;100.00;101770.13;4983672;28;45877;-79
2023/04/18 03:17:23;;;;;;;;;69.75;52.00;;;;;9.29;100.00;101766.69;4967300;28;45335;-77
2023/04/18 03:19:48;;;;;;;;;67.50;51.75;;;;;9.25;100.00;101759.88;4983998;28;45954;-78
2023/04/18 03:22:14;;;;;;;;;76.75;57.25;;;;;9.26;100.00;101769.78;4983998;28;45603;-78
2023/04/18 03:24:40;;;;;;;;;66.25;49.50;;;;;9.19;100.00;101764.16;4989650;28;44759;-76
2023/04/18 03:27:05;;;;;;;;;76.25;55.50;;;;;9.18;100.00;101762.44;4980892;28;44826;-78
2023/04/18 03:29:31;;;;;;;;;63.50;50.75;;;;;9.11;100.00;101752.38;4951045;28;45993;-80
2023/04/18 03:31:56;;;;;;;;;66.00;51.00;;;;;9.06;100.00;101761.13;4979084;28;46089;-80
2023/04/18 03:34:22;;;;;;;;;74.50;59.25;;;;;9.05;100.00;101758.56;4981663;28;45556;-78
2023/04/18 03:36:47;;;;;;;;;72.25;55.00;;;;;9.02;100.00;101765.22;4985716;28;45370;-79
2023/04/18 03:39:12;;;;;;;;;70.25;55.25;;;;;8.98;100.00;101761.13;4976535;28;45527;-79
2023/04/18 03:41:38;;;;;;;;;79.75;63.50;;;;;8.86;100.00;101744.19;4986729;28;46850;-82
2023/04/18 03:44:04;;;;;;;;;72.25;54.00;;;;;8.90;100.00;101755.66;4982048;28;45933;-79
2023/04/18 03:46:29;;;;;;;;;75.50;55.50;;;;;8.84;100.00;101759.94;4978795;28;45474;-80
2023/04/18 03:48:54;;;;;;;;;75.75;60.00;;;;;8.80;100.00;101759.44;4990459;28;45596;-81
2023/04/18 03:51:20;;;;;;;;;77.00;59.75;;;;;8.77;100.00;101759.78;4971755;28;45930;-81
2023/04/18 03:53:45;;;;;;;;;71.25;53.75;;;;;8.76;100.00;101760.81;4991736;28;45825;-81
2023/04/18 03:56:11;;;;;;;;;78.00;62.00;;;;;8.63;100.00;101750.38;4958307;28;45764;-79
2023/04/18 03:58:37;;;;;;;;;76.75;55.50;;;;;8.72;100.00;101764.06;4979861;28;45651;-79
2023/04/18 04:01:02;;;;;;;;;76.25;58.25;;;;;8.66;100.00;101749.19;4975858;28;45558;-80
2023/04/18 04:03:27;;;;;;;;;78.25;57.00;;;;;8.66;100.00;101754.66;4972723;28;45372;-80
2023/04/18 04:05:53;;;;;;;;;74.25;56.50;;;;;8.67;100.00;101761.84;4973768;28;45389;-81
2023/04/18 04:08:20;;;;;;;;;78.75;63.50;;;;;8.68;100.00;101751.75;4961249;28;46852;-80
2023/04/18 04:10:45;;;;;;;;;67.75;54.25;;;;;8.68;100.00;101759.94;4982883;28;48375;-79
2023/04/18 04:13:11;;;;;;;;;77.75;57.00;;;;;8.63;100.00;101747.63;4977262;28;45637;-79
2023/04/18 04:15:37;;;;;;;;;70.50;52.75;;;;;8.59;100.00;101751.78;4982647;28;45761;-80
2023/04/18 04:18:04;;;;;;;;;77.50;57.00;;;;;8.60;100.00;101756.19;4992481;28;45415;-79
2023/04/18 04:20:29;;;;;;;;;70.50;54.75;;;;;8.50;100.00;101733.63;4980343;28;45550;-80
2023/04/18 04:22:55;;;;;;;;;84.75;68.50;;;;;8.55;100.00;101752.25;4976267;28;45388;-79
2023/04/18 04:25:23;;;;;;;;;119.00;103.25;;;;;8.54;100.00;101745.94;4974989;28;45556;-80
2023/04/18 04:27:52;;;;;;;;;72.25;54.25;;;;;8.55;100.00;101753.13;4985289;28;45853;-79
2023/04/18 04:30:17;;;;;;;;;75.75;58.50;;;;;8.55;100.00;101755.88;4985762;28;46189;-78
2023/04/18 04:32:43;;;;;;;;;77.00;63.00;;;;;8.55;100.00;101755.00;4975382;28;45642;-79
2023/04/18 04:35:09;;;;;;;;;79.00;60.00;;;;;8.53;100.00;101752.41;4976042;28;45303;-80
2023/04/18 04:37:35;;;;;;;;;79.75;60.00;;;;;8.53;100.00;101754.31;4981652;28;45453;-81
2023/04/18 04:40:03;;;;;;;;;76.75;59.75;;;;;8.56;100.00;101749.38;4977762;28;45443;-80
2023/04/18 04:42:28;;;;;;;;;72.25;54.00;;;;;8.47;100.00;101733.97;4987430;28;45503;-80
2023/04/18 04:44:54;;;;;;;;;78.00;60.50;;;;;8.57;100.00;101755.69;4996117;28;45755;-81
2023/04/18 04:47:20;;;;;;;;;65.50;52.50;;;;;8.57;100.00;101752.94;4978170;28;45771;-82
2023/04/18 04:49:46;;;;;;;;;75.75;56.00;;;;;8.52;100.00;101745.28;4964774;28;46330;-82
2023/04/18 04:52:11;;;;;;;;;60.50;49.00;;;;;8.53;100.00;101755.16;4965949;28;45522;-81
2023/04/18 04:54:37;;;;;;;;;73.25;58.00;;;;;8.52;100.00;101750.75;4966645;28;45215;-81
2023/04/18 04:57:03;;;;;;;;;74.25;58.00;;;;;8.54;100.00;101735.00;4984228;28;45364;-82
2023/04/18 04:59:28;;;;;;;;;72.25;55.25;;;;;8.69;100.00;101748.00;4983181;28;45461;-81
2023/04/18 05:01:53;;;;;;;;;80.00;60.25;;;;;8.69;100.00;101753.47;4982301;28;45481;-82
2023/04/18 05:04:19;;;;;;;;;75.50;60.50;;;;;8.66;100.00;101749.19;5000904;28;45330;-82
2023/04/18 05:06:45;;;;;;;;;75.25;59.75;;;;;8.61;100.00;101757.91;4992917;28;45580;-80
2023/04/18 05:09:10;;;;;;;;;74.25;56.00;;;;;8.52;100.00;101744.38;4990140;28;46045;-81
2023/04/18 05:11:36;;;;;;;;;72.75;53.75;;;;;8.62;100.00;101764.22;4985477;28;45448;-83
2023/04/18 05:14:01;;;;;;;;;80.00;61.75;;;;;8.63;100.00;101758.56;4979442;28;45359;-79
2023/04/18 05:16:27;;;;;;;;;68.50;54.00;;;;;8.64;100.00;101763.03;4978418;28;45392;-82
2023/04/18 05:18:52;;;;;;;;;79.00;62.75;;;;;8.69;100.00;101753.47;4974985;28;46972;-81
2023/04/18 05:21:17;;;;;;;;;73.25;56.75;;;;;8.71;100.00;101754.97;4974828;28;45450;-81
2023/04/18 05:23:43;;;;;;;;;76.25;61.00;;;;;8.75;100.00;101745.41;4976158;28;45464;-81
2023/04/18 05:26:08;;;;;;;;;80.50;61.75;;;;;8.79;100.00;101754.16;4986033;28;45416;-81
2023/04/18 05:28:34;;;;;;;;;77.50;57.75;;;;;8.85;100.00;101745.25;4981070;28;45405;-85
2023/04/18 05:31:00;;;;;;;;;74.50;56.75;;;;;9.05;100.00;101753.09;4978545;28;45942;-80
2023/04/18 05:33:30;;;;;;;;;72.00;55.75;;;;;9.11;100.00;101741.44;4950002;28;45973;-82
2023/04/18 05:35:56;;;;;;;;;73.50;55.50;;;;;9.16;100.00;101756.31;4976010;28;45840;-84
2023/04/18 05:38:22;;;;;;;;;71.50;54.50;;;;;9.23;100.00;101750.97;4977721;28;46266;-84
2023/04/18 05:40:49;;;;;;;;;73.00;54.50;;;;;9.32;100.00;101747.19;4976577;28;45444;-83
2023/04/18 05:43:16;;;;;;;;;73.75;54.50;;;;;9.36;100.00;101748.53;4983098;28;46107;-82
2023/04/18 05:45:42;;;;;;;;;74.00;55.25;;;;;9.48;100.00;101759.13;4971795;28;45935;-85
2023/04/18 05:48:07;;;;;;;;;70.00;53.25;;;;;9.66;100.00;101757.00;4979431;28;45574;-83
2023/04/18 05:50:32;;;;;;;;;71.50;53.50;;;;;10.06;100.00;101759.72;4986786;28;45607;-84
2023/04/18 05:52:58;;;;;;;;;65.25;51.25;;;;;10.47;100.00;101758.59;4980455;28;45488;-82
2023/04/18 05:55:24;;;;;;;;;72.00;54.75;;;;;10.89;100.00;101757.22;4973375;28;45422;-82
2023/04/18 05:57:50;;;;;;;;;70.00;51.75;;;;;11.09;100.00;101744.66;4975921;28;46033;-82
2023/04/18 06:00:16;;;;;;;;;68.25;53.25;;;;;11.34;100.00;101740.78;4985262;28;45588;-82
2023/04/18 06:02:41;;;;;;;;;71.75;54.75;;;;;11.37;100.00;101754.97;4979584;28;45717;-82
2023/04/18 06:05:07;;;;;;;;;66.25;51.00;;;;;11.07;100.00;101743.13;4957784;28;47180;-82
2023/04/18 06:07:33;;;;;;;;;71.25;52.00;;;;;11.00;100.00;101754.00;4977205;28;45519;-81
2023/04/18 06:09:58;;;;;;;;;68.25;50.75;;;;;10.89;100.00;101746.22;4983370;28;45481;-83
2023/04/18 06:12:24;;;;;;;;;66.25;50.75;;;;;10.83;100.00;101749.72;4979595;28;45998;-82
2023/04/18 06:14:50;;;;;;;;;73.25;53.25;;;;;10.74;100.00;101740.72;4974804;28;46313;-82
2023/04/18 06:17:15;;;;;;;;;69.25;53.50;;;;;10.72;100.00;101756.53;4979049;28;45314;-82
2023/04/18 06:19:40;;;;;;;;;70.00;51.75;;;;;10.60;100.00;101739.66;4977175;28;45614;-82
2023/04/18 06:22:06;;;;;;;;;68.25;53.50;;;;;10.36;100.00;101722.34;4957823;28;46107;-82
2023/04/18 06:24:31;;;;;;;;;70.25;49.75;;;;;10.46;100.00;101759.63;4974013;28;46023;-82
2023/04/18 06:26:57;;;;;;;;;70.25;53.75;;;;;10.25;100.00;101739.19;4979295;28;46979;-81
2023/04/18 06:29:26;;;;;;;;;62.25;50.75;;;;;10.06;100.00;101741.38;4974156;28;45439;-82
2023/04/18 06:31:51;;;;;;;;;71.50;54.50;;;;;9.98;100.00;101737.81;4972191;28;45933;-82
2023/04/18 06:34:16;;;;;;;;;70.50;54.75;;;;;10.04;100.00;101743.44;4970295;28;45441;-80
2023/04/18 06:36:42;;;;;;;;;63.25;50.50;;;;;10.06;100.00;101752.34;4986958;28;45445;-82
2023/04/18 06:39:08;;;;;;;;;71.75;55.75;;;;;10.04;100.00;101750.78;4979649;28;45744;-80
2023/04/18 06:41:33;;;;;;;;;70.50;54.00;;;;;9.94;100.00;101736.47;4973970;28;45591;-82
2023/04/18 06:43:59;;;;;;;;;69.25;54.00;;;;;9.96;100.00;101732.53;4963345;28;47205;-82
2023/04/18 06:46:34;;;;;;;;;69.75;53.25;;;;;10.06;100.00;101752.34;4983734;28;47132;-81
2023/04/18 06:49:00;;;;;;;;;73.00;54.00;;;;;10.03;100.00;101749.97;4979729;28;45614;-84
2023/04/18 06:51:26;;;;;;;;;66.00;50.25;;;;;10.03;100.00;101746.34;4973507;28;45465;-85
2023/04/18 06:53:52;;;;;;;;;73.25;54.50;;;;;10.00;100.00;101757.66;4976489;28;45144;-84
2023/04/18 06:56:19;;;;;;;;;68.50;50.25;;;;;9.94;100.00;101734.59;4975851;28;47584;-87
2023/04/18 06:58:48;;;;;;;;;58.25;46.50;;;;;10.24;100.00;101759.44;4960686;28;45686;-82
2023/04/18 07:01:14;;;;;;;;;68.75;54.25;;;;;10.32;100.00;101755.78;4985682;28;45818;-84
2023/04/18 07:03:40;;;;;;;;;70.75;54.00;;;;;10.42;100.00;101751.78;4987999;28;45458;-83
2023/04/18 07:06:07;;;;;;;;;69.25;51.75;;;;;10.60;100.00;101750.63;4983256;28;45462;-83
2023/04/18 07:08:36;;;;;;;;;65.75;49.25;;;;;11.29;100.00;101749.59;4971247;28;45889;-83
2023/04/18 07:11:01;;;;;;;;;67.00;52.25;;;;;12.18;100.00;101752.25;4963037;28;45738;-83
2023/04/18 07:13:27;;;;;;;;;69.25;51.00;;;;;12.97;100.00;101749.56;4966432;28;45376;-84
2023/04/18 07:15:55;;;;;;;;;68.75;53.00;;;;;13.57;100.00;101742.53;4962500;28;45577;-82
2023/04/18 07:18:22;;;;;;;;;68.00;50.25;;;;;13.92;100.00;101738.88;4977750;28;45854;-84
2023/04/18 07:20:47;;;;;;;;;65.00;50.25;;;;;14.24;100.00;101744.72;4975084;28;45800;-82
2023/04/18 07:23:13;;;;;;;;;68.75;53.75;;;;;14.53;100.00;101750.91;4959260;28;45870;-83
2023/04/18 07:25:38;;;;;;;;;73.75;57.25;;;;;15.11;100.00;101748.38;4967082;28;45592;-83
2023/04/18 07:28:04;;;;;;;;;66.00;53.25;;;;;15.36;100.00;101756.84;4959652;28;45753;-82
2023/04/18 07:30:29;;;;;;;;;75.50;56.25;;;;;15.67;100.00;101735.94;4954853;28;44833;-84
2023/04/18 07:32:58;;;;;;;;;51.50;41.25;;;;;15.53;100.00;101721.28;4979647;28;47022;-84
2023/04/18 07:35:24;;;;;;;;;60.25;46.50;;;;;15.24;100.00;101741.13;4961955;28;46106;-83
2023/04/18 07:37:49;;;;;;;;;72.75;56.25;;;;;14.89;100.00;101747.75;4973473;28;46318;-83
2023/04/18 07:40:15;;;;;;;;;76.25;56.00;;;;;14.91;100.00;101728.22;4958902;28;45351;-83
2023/04/18 07:42:42;;;;;;;;;64.00;48.50;;;;;15.04;100.00;101749.47;4960640;28;46114;-82
2023/04/18 07:45:07;;;;;;;;;72.75;54.50;;;;;15.40;100.00;101756.41;4977926;28;47472;-83
2023/04/18 07:47:33;;;;;;;;;62.75;49.25;;;;;15.21;100.00;101745.19;4955533;28;45417;-81
2023/04/18 07:49:58;;;;;;;;;69.75;56.25;;;;;14.90;100.00;101746.72;4966098;28;45414;-82
2023/04/18 07:52:24;;;;;;;;;71.25;53.00;;;;;14.44;100.00;101747.50;4960998;28;46078;-83
2023/04/18 07:54:49;;;;;;;;;73.50;56.25;;;;;14.35;100.00;101735.81;4944414;28;47459;-82
2023/04/18 07:57:15;;;;;;;;;76.00;58.00;;;;;14.49;100.00;101736.69;4983746;28;45629;-82
2023/04/18 07:59:40;;;;;;;;;69.75;52.50;;;;;14.67;100.00;101738.00;4958085;28;45605;-84
2023/04/18 08:02:06;;;;;;;;;67.50;51.75;;;;;14.79;100.00;101739.06;4957383;28;46062;-84
2023/04/18 08:04:32;;;;;;;;;70.00;54.50;;;;;14.85;100.00;101743.75;4959772;28;45711;-82
2023/04/18 08:06:57;;;;;;;;;73.75;57.50;;;;;14.83;100.00;101743.97;4964760;28;45486;-82
2023/04/18 08:09:22;;;;;;;;;66.50;52.75;;;;;15.03;100.00;101736.69;4972858;28;45823;-84
2023/04/18 08:11:48;;;;;;;;;76.50;57.75;;;;;15.17;100.00;101738.41;4977069;28;45429;-81
2023/04/18 08:14:14;;;;;;;;;71.00;54.25;;;;;14.95;100.00;101722.03;4978141;28;45683;-83
2023/04/18 08:16:40;;;;;;;;;60.00;48.25;;;;;14.97;100.00;101730.97;4976836;28;45399;-81
2023/04/18 08:19:05;;;;;;;;;76.25;57.50;;;;;14.65;100.00;101725.28;4976995;28;45447;-81
2023/04/18 08:21:31;;;;;;;;;76.50;56.50;;;;;14.62;100.00;101731.19;4980869;28;45925;-83
2023/04/18 08:23:57;;;;;;;;;71.75;55.50;;;;;14.37;100.00;101738.34;4991952;28;46462;-82
2023/04/18 08:26:22;;;;;;;;;71.00;54.50;;;;;14.32;100.00;101722.44;4966602;28;45830;-83
2023/04/18 08:28:48;;;;;;;;;70.75;55.25;;;;;14.44;100.00;101728.19;4976101;28;45607;-83
2023/04/18 08:31:15;;;;;;;;;75.50;56.25;;;;;14.51;100.00;101734.56;4987295;28;45511;-84
2023/04/18 08:33:40;;;;;;;;;71.75;56.50;;;;;14.40;100.00;101726.88;4972425;28;47152;-84
2023/04/18 08:36:06;;;;;;;;;77.75;58.75;;;;;14.38;100.00;101721.59;4991677;28;45738;-83
2023/04/18 08:38:32;;;;;;;;;67.75;53.00;;;;;15.17;100.00;101721.81;4984315;28;45935;-83
2023/04/18 08:40:57;;;;;;;;;67.50;51.25;;;;;16.39;100.00;101719.16;4983535;28;44999;-83
2023/04/18 08:43:24;;;;;;;;;59.75;46.25;;;;;17.44;100.00;101702.84;4981677;28;45769;-82
2023/04/18 08:45:49;;;;;;;;;68.00;53.25;;;;;18.70;100.00;101699.38;4979918;28;45365;-84
2023/04/18 08:48:16;;;;;;;;;64.00;50.25;;;;;19.91;100.00;101698.78;4977461;28;45421;-83
2023/04/18 08:50:42;;;;;;;;;65.00;48.00;;;;;21.19;100.00;101707.66;4986453;28;45571;-85
2023/04/18 08:53:08;;;;;;;;;62.67;47.00;;;;;21.73;98.88;101711.75;4964579;28;46132;-82
2023/04/18 08:55:34;;;;;;;;;62.00;48.00;;;;;21.77;95.72;101702.59;4983806;28;45477;-82
2023/04/18 08:58:00;;;;;;;;;62.33;49.67;;;;;22.59;91.63;101713.81;4979014;28;45562;-83
2023/04/18 09:00:28;;;;;;;;;57.00;45.33;;;;;23.32;87.41;101699.22;4988613;28;45577;-83
2023/04/18 09:02:55;;;;;;;;;58.67;46.67;;;;;23.53;83.08;101702.94;4986895;28;45684;-84
2023/04/18 09:05:23;;;;;;;;;62.33;47.33;;;;;23.60;79.92;101705.50;4996982;28;45670;-84
2023/04/18 09:07:51;;;;;;;;;61.00;46.00;;;;;23.26;79.56;101686.31;4992656;28;45507;-82
2023/04/18 09:10:27;;;;;;;;;59.33;45.67;;;;;23.27;77.67;101690.78;4974586;28;45413;-82
2023/04/18 09:12:55;;;;;;;;;58.67;47.00;;;;;23.50;76.31;101697.91;4984036;28;45526;-82
2023/04/18 09:15:23;;;;;;;;;55.33;44.00;;;;;24.09;74.09;101693.09;4988706;28;45441;-82
2023/04/18 09:17:52;;;;;;;;;53.67;41.33;;;;;24.67;70.71;101699.34;4973602;28;45531;-83
2023/04/18 09:20:39;;;;;;;;;50.33;41.00;;;;;24.33;67.85;101687.81;4978429;28;45395;-82
2023/04/18 09:23:20;;;;;;;;;59.33;48.33;;;;;24.72;67.31;101686.44;4978563;28;46599;-82
2023/04/18 09:25:48;;;;;;;;;58.33;46.33;;;;;25.08;65.18;101681.59;4956108;28;46031;-82
2023/04/18 09:28:31;;;;;;;;;61.00;46.67;;;;;25.33;63.56;101671.44;4954567;28;45627;-83
2023/04/18 09:31:11;;;;;;;;;49.33;41.33;;;;;25.49;61.09;101673.06;4977186;28;45667;-81
2023/04/18 09:33:38;;;;;;;;;58.67;47.00;;;;;25.50;60.55;101669.13;4969227;28;45581;-82
2023/04/18 09:36:21;;;;;;;;;54.67;43.67;;;;;25.33;60.94;101658.25;4982052;28;46024;-83
2023/04/18 09:38:48;;;;;;;;;54.67;41.67;;;;;25.58;61.23;101664.88;4960901;28;45399;-82
2023/04/18 09:41:15;;;;;;;;;60.67;46.67;;;;;26.15;59.97;101656.16;4958735;28;45590;-81
2023/04/18 09:43:42;;;;;;;;;52.00;42.67;;;;;26.91;58.57;101657.47;4971039;28;46188;-79
2023/04/18 09:46:08;;;;;;;;;52.67;43.33;;;;;27.61;56.44;101653.28;4978989;28;45695;-82
2023/04/18 09:48:34;;;;;;;;;55.00;44.00;;;;;26.98;54.30;101642.19;4965816;28;45776;-80
2023/04/18 09:51:04;;;;;;;;;46.67;41.00;;;;;26.94;53.95;101653.22;4986483;28;45456;-80
2023/04/18 09:53:30;;;;;;;;;49.67;38.00;;;;;27.13;52.59;101630.78;4974799;28;46189;-80
2023/04/18 09:55:56;;;;;;;;;51.00;41.67;;;;;27.53;51.33;101636.22;4973362;28;45694;-81
2023/04/18 09:58:24;;;;;;;;;51.67;41.33;;;;;27.11;49.42;101636.72;4972827;28;45697;-82
2023/04/18 10:00:52;;;;;;;;;53.33;44.33;;;;;26.77;50.48;101637.63;4973355;28;45709;-78
2023/04/18 10:03:21;;;;;;;;;53.33;42.67;;;;;26.75;51.10;101639.06;4976524;28;45922;-83
2023/04/18 10:05:47;;;;;;;;;56.33;44.00;;;;;26.85;51.03;101636.13;4991854;28;45687;-78
2023/04/18 10:08:13;;;;;;;;;52.33;43.33;;;;;26.68;50.92;101622.53;4987474;28;45321;-81
2023/04/18 10:10:40;;;;;;;;;52.67;43.67;;;;;26.22;50.31;101626.56;4993810;28;45845;-80
2023/04/18 10:13:10;;;;;;;;;53.00;42.00;;;;;25.96;50.47;101630.66;4979177;28;46831;-82
2023/04/18 10:15:36;;;;;;;;;60.00;44.67;;;;;26.05;51.30;101632.59;4990914;28;45820;-81
2023/04/18 10:18:08;;;;;;;;;57.33;44.33;;;;;25.91;51.85;101623.09;4960391;28;45578;-83
2023/04/18 10:20:34;;;;;;;;;46.67;35.33;;;;;25.75;51.52;101635.56;4990272;28;45540;-82
2023/04/18 10:23:19;;;;;;;;;55.67;43.00;;;;;25.94;52.44;101618.88;4970093;28;46700;-83
2023/04/18 10:25:48;;;;;;;;;51.67;42.67;;;;;26.81;50.81;101622.97;4971601;28;45848;-84
2023/04/18 10:28:14;;;;;;;;;51.33;41.00;;;;;26.66;51.32;101609.84;4957321;28;45544;-84
2023/04/18 10:30:39;;;;;;;;;53.67;43.67;;;;;26.54;50.39;101608.28;4976065;28;46101;-83
2023/04/18 10:33:22;;;;;;;;;56.00;42.00;;;;;26.00;50.57;101593.28;4983783;28;45424;-84
2023/04/18 10:36:02;;;;;;;;;49.00;39.00;;;;;26.16;50.82;101613.69;4959463;28;45815;-84
2023/04/18 10:38:28;;;;;;;;;56.67;44.00;;;;;26.02;50.82;101588.22;4955831;28;46047;-84
2023/04/18 10:41:20;;;;;;;;;60.00;42.00;;;;;26.21;50.50;101593.97;4988403;28;45410;-82
2023/04/18 10:44:05;;;;;;;;;52.00;40.33;;;;;26.23;51.10;101594.50;4982310;28;47170;-82
2023/04/18 10:46:30;;;;;;;;;50.00;39.67;;;;;26.56;50.89;101585.50;4992892;28;45475;-80
2023/04/18 10:49:22;;;;;;;;;50.33;38.33;;;;;25.62;48.01;101581.72;4985666;28;45767;-81
2023/04/18 10:51:53;;;;;;;;;47.67;37.67;;;;;24.88;49.73;101586.22;4986512;28;45488;-82
2023/04/18 10:54:45;;;;;;;;;52.67;41.00;;;;;24.57;50.39;101598.34;4984278;28;47527;-80
2023/04/18 10:57:12;;;;;;;;;54.67;42.67;;;;;24.36;49.58;101571.44;4988955;28;46051;-81
2023/04/18 10:59:49;;;;;;;;;52.33;40.67;;;;;24.34;50.59;101580.13;4982587;28;45378;-81
2023/04/18 11:02:28;;;;;;;;;58.00;43.67;;;;;23.49;51.38;101580.56;4966896;28;46222;-82
2023/04/18 11:05:05;;;;;;;;;44.33;39.33;;;;;23.12;52.79;101581.59;4962145;28;45966;-80
2023/04/18 11:07:44;;;;;;;;;51.33;35.67;;;;;23.11;53.59;101574.31;4982334;28;45897;-80